sensor_id;sensor_type;location;lat;lon;timestamp;P1;durP1;ratioP1;P2;durP2;ratioP2
12770;SDS011;6449;47.666;9.160;2023-07-13T00:03:39;3.13;;;2.63;;
12770;SDS011;6449;47.666;9.160;2023-07-13T00:08:33;7.07;;;2.70;;
12770;SDS011;6449;47.666;9.160;2023-07-13T00:13:28;3.10;;;2.50;;
12770;SDS011;6449;47.666;9.160;2023-07-13T00:18:22;5.00;;;2.60;;
12770;SDS011;6449;47.666;9.160;2023-07-13T00:23:18;4.07;;;2.53;;
12770;SDS011;6449;47.666;9.160;2023-07-13T00:28:18;2.97;;;2.67;;
12770;SDS011;6449;47.666;9.160;2023-07-13T00:33:11;4.15;;;2.63;;
12770;SDS011;6449;47.666;9.160;2023-07-13T00:38:09;3.53;;;2.42;;
12770;SDS011;6449;47.666;9.160;2023-07-13T00:43:04;3.10;;;2.40;;
12770;SDS011;6449;47.666;9.160;2023-07-13T00:48:04;3.67;;;2.53;;
12770;SDS011;6449;47.666;9.160;2023-07-13T00:52:58;3.35;;;2.35;;
12770;SDS011;6449;47.666;9.160;2023-07-13T00:57:52;3.72;;;2.33;;
12770;SDS011;6449;47.666;9.160;2023-07-13T01:02:46;3.08;;;2.17;;
12770;SDS011;6449;47.666;9.160;2023-07-13T01:07:42;2.88;;;2.30;;
12770;SDS011;6449;47.666;9.160;2023-07-13T01:12:37;3.13;;;2.45;;
12770;SDS011;6449;47.666;9.160;2023-07-13T01:17:31;5.07;;;2.42;;
12770;SDS011;6449;47.666;9.160;2023-07-13T01:22:28;2.55;;;2.15;;
12770;SDS011;6449;47.666;9.160;2023-07-13T01:27:24;2.75;;;2.45;;
12770;SDS011;6449;47.666;9.160;2023-07-13T01:32:20;6.28;;;2.47;;
12770;SDS011;6449;47.666;9.160;2023-07-13T01:37:17;4.30;;;2.35;;
12770;SDS011;6449;47.666;9.160;2023-07-13T01:42:11;3.83;;;2.50;;
12770;SDS011;6449;47.666;9.160;2023-07-13T01:47:05;3.25;;;2.47;;
12770;SDS011;6449;47.666;9.160;2023-07-13T01:51:59;3.33;;;2.30;;
12770;SDS011;6449;47.666;9.160;2023-07-13T01:56:52;3.75;;;2.15;;
12770;SDS011;6449;47.666;9.160;2023-07-13T02:01:47;3.70;;;2.20;;
12770;SDS011;6449;47.666;9.160;2023-07-13T02:06:40;3.22;;;2.35;;
12770;SDS011;6449;47.666;9.160;2023-07-13T02:11:34;3.10;;;2.45;;
12770;SDS011;6449;47.666;9.160;2023-07-13T02:16:27;3.20;;;2.33;;
12770;SDS011;6449;47.666;9.160;2023-07-13T02:21:23;6.60;;;3.92;;
12770;SDS011;6449;47.666;9.160;2023-07-13T02:26:16;3.97;;;2.47;;
12770;SDS011;6449;47.666;9.160;2023-07-13T02:31:11;4.43;;;2.45;;
12770;SDS011;6449;47.666;9.160;2023-07-13T02:36:07;6.95;;;3.88;;
12770;SDS011;6449;47.666;9.160;2023-07-13T02:41:03;3.40;;;2.60;;
12770;SDS011;6449;47.666;9.160;2023-07-13T02:45:58;3.50;;;2.55;;
12770;SDS011;6449;47.666;9.160;2023-07-13T02:50:58;3.50;;;2.50;;
12770;SDS011;6449;47.666;9.160;2023-07-13T02:55:52;3.17;;;2.55;;
12770;SDS011;6449;47.666;9.160;2023-07-13T03:00:47;4.18;;;2.53;;
12770;SDS011;6449;47.666;9.160;2023-07-13T03:05:42;4.97;;;2.33;;
12770;SDS011;6449;47.666;9.160;2023-07-13T03:10:42;2.28;;;2.08;;
12770;SDS011;6449;47.666;9.160;2023-07-13T03:15:35;3.78;;;2.20;;
12770;SDS011;6449;47.666;9.160;2023-07-13T03:20:31;2.38;;;2.15;;
12770;SDS011;6449;47.666;9.160;2023-07-13T03:25:25;3.42;;;2.22;;
12770;SDS011;6449;47.666;9.160;2023-07-13T03:30:19;3.05;;;2.30;;
12770;SDS011;6449;47.666;9.160;2023-07-13T03:35:12;2.63;;;2.08;;
12770;SDS011;6449;47.666;9.160;2023-07-13T03:40:08;3.25;;;2.35;;
12770;SDS011;6449;47.666;9.160;2023-07-13T03:45:03;3.55;;;2.10;;
12770;SDS011;6449;47.666;9.160;2023-07-13T03:49:57;2.22;;;2.03;;
12770;SDS011;6449;47.666;9.160;2023-07-13T03:54:51;3.83;;;2.38;;
12770;SDS011;6449;47.666;9.160;2023-07-13T03:59:46;3.63;;;2.30;;
12770;SDS011;6449;47.666;9.160;2023-07-13T04:04:39;4.32;;;2.55;;
12770;SDS011;6449;47.666;9.160;2023-07-13T04:09:32;5.03;;;1.90;;
12770;SDS011;6449;47.666;9.160;2023-07-13T04:14:26;2.50;;;1.83;;
12770;SDS011;6449;47.666;9.160;2023-07-13T04:19:21;2.72;;;2.10;;
12770;SDS011;6449;47.666;9.160;2023-07-13T04:24:14;4.00;;;2.20;;
12770;SDS011;6449;47.666;9.160;2023-07-13T04:29:07;3.53;;;2.20;;
12770;SDS011;6449;47.666;9.160;2023-07-13T04:34:01;3.72;;;2.17;;
12770;SDS011;6449;47.666;9.160;2023-07-13T04:38:56;3.50;;;2.53;;
12770;SDS011;6449;47.666;9.160;2023-07-13T04:43:49;3.45;;;1.92;;
12770;SDS011;6449;47.666;9.160;2023-07-13T04:48:45;3.38;;;2.25;;
12770;SDS011;6449;47.666;9.160;2023-07-13T04:53:42;2.80;;;2.25;;
12770;SDS011;6449;47.666;9.160;2023-07-13T04:58:37;4.40;;;2.10;;
12770;SDS011;6449;47.666;9.160;2023-07-13T05:03:31;4.38;;;1.88;;
12770;SDS011;6449;47.666;9.160;2023-07-13T05:08:26;2.25;;;1.90;;
12770;SDS011;6449;47.666;9.160;2023-07-13T05:13:20;2.47;;;2.28;;
12770;SDS011;6449;47.666;9.160;2023-07-13T05:18:17;3.88;;;2.38;;
12770;SDS011;6449;47.666;9.160;2023-07-13T05:23:11;3.88;;;2.33;;
12770;SDS011;6449;47.666;9.160;2023-07-13T05:28:04;3.58;;;2.50;;
12770;SDS011;6449;47.666;9.160;2023-07-13T05:32:57;3.40;;;2.45;;
12770;SDS011;6449;47.666;9.160;2023-07-13T05:37:52;4.90;;;2.55;;
12770;SDS011;6449;47.666;9.160;2023-07-13T05:42:45;4.47;;;2.42;;
12770;SDS011;6449;47.666;9.160;2023-07-13T05:47:39;2.78;;;2.40;;
12770;SDS011;6449;47.666;9.160;2023-07-13T05:52:35;2.50;;;2.28;;
12770;SDS011;6449;47.666;9.160;2023-07-13T05:57:30;2.97;;;2.20;;
12770;SDS011;6449;47.666;9.160;2023-07-13T06:02:24;3.05;;;2.45;;
12770;SDS011;6449;47.666;9.160;2023-07-13T06:07:18;3.70;;;2.22;;
12770;SDS011;6449;47.666;9.160;2023-07-13T06:12:11;2.75;;;2.40;;
12770;SDS011;6449;47.666;9.160;2023-07-13T06:17:07;5.10;;;2.40;;
12770;SDS011;6449;47.666;9.160;2023-07-13T06:22:00;5.80;;;2.35;;
12770;SDS011;6449;47.666;9.160;2023-07-13T06:26:54;3.53;;;2.28;;
12770;SDS011;6449;47.666;9.160;2023-07-13T06:31:48;3.22;;;2.30;;
12770;SDS011;6449;47.666;9.160;2023-07-13T06:36:43;3.85;;;2.40;;
12770;SDS011;6449;47.666;9.160;2023-07-13T06:41:37;3.78;;;2.58;;
12770;SDS011;6449;47.666;9.160;2023-07-13T06:46:30;2.65;;;2.28;;
12770;SDS011;6449;47.666;9.160;2023-07-13T06:51:24;3.65;;;2.25;;
12770;SDS011;6449;47.666;9.160;2023-07-13T06:56:19;5.03;;;1.92;;
12770;SDS011;6449;47.666;9.160;2023-07-13T07:01:12;2.95;;;2.30;;
12770;SDS011;6449;47.666;9.160;2023-07-13T07:06:10;3.30;;;2.03;;
12770;SDS011;6449;47.666;9.160;2023-07-13T07:11:11;3.55;;;1.85;;
12770;SDS011;6449;47.666;9.160;2023-07-13T07:16:08;4.10;;;2.05;;
12770;SDS011;6449;47.666;9.160;2023-07-13T07:21:01;4.82;;;2.17;;
12770;SDS011;6449;47.666;9.160;2023-07-13T07:25:55;2.83;;;1.92;;
12770;SDS011;6449;47.666;9.160;2023-07-13T07:30:48;2.20;;;1.95;;
12770;SDS011;6449;47.666;9.160;2023-07-13T07:36:07;3.67;;;2.10;;
12770;SDS011;6449;47.666;9.160;2023-07-13T07:41:03;5.25;;;1.80;;
12770;SDS011;6449;47.666;9.160;2023-07-13T07:46:00;3.05;;;2.20;;
12770;SDS011;6449;47.666;9.160;2023-07-13T07:50:54;2.53;;;2.00;;
12770;SDS011;6449;47.666;9.160;2023-07-13T07:55:49;2.67;;;1.98;;
12770;SDS011;6449;47.666;9.160;2023-07-13T08:00:46;3.35;;;2.17;;
12770;SDS011;6449;47.666;9.160;2023-07-13T08:05:42;2.90;;;1.95;;
12770;SDS011;6449;47.666;9.160;2023-07-13T08:10:57;2.83;;;1.95;;
12770;SDS011;6449;47.666;9.160;2023-07-13T08:16:15;4.28;;;1.90;;
12770;SDS011;6449;47.666;9.160;2023-07-13T08:21:09;4.07;;;2.00;;
12770;SDS011;6449;47.666;9.160;2023-07-13T08:26:04;5.10;;;1.98;;
12770;SDS011;6449;47.666;9.160;2023-07-13T08:31:00;2.15;;;1.80;;
12770;SDS011;6449;47.666;9.160;2023-07-13T08:35:54;3.20;;;1.83;;
12770;SDS011;6449;47.666;9.160;2023-07-13T08:40:49;4.47;;;1.80;;
12770;SDS011;6449;47.666;9.160;2023-07-13T08:45:48;2.58;;;2.15;;
12770;SDS011;6449;47.666;9.160;2023-07-13T08:50:51;2.05;;;1.67;;
12770;SDS011;6449;47.666;9.160;2023-07-13T08:55:57;2.53;;;1.88;;
12770;SDS011;6449;47.666;9.160;2023-07-13T09:00:56;1.95;;;1.75;;
12770;SDS011;6449;47.666;9.160;2023-07-13T09:05:59;3.38;;;1.80;;
12770;SDS011;6449;47.666;9.160;2023-07-13T09:10:58;3.63;;;1.73;;
12770;SDS011;6449;47.666;9.160;2023-07-13T09:16:08;3.55;;;1.85;;
12770;SDS011;6449;47.666;9.160;2023-07-13T09:21:04;3.70;;;1.80;;
12770;SDS011;6449;47.666;9.160;2023-07-13T09:26:06;1.80;;;1.33;;
12770;SDS011;6449;47.666;9.160;2023-07-13T09:31:09;3.75;;;1.67;;
12770;SDS011;6449;47.666;9.160;2023-07-13T09:36:16;2.42;;;1.65;;
12770;SDS011;6449;47.666;9.160;2023-07-13T09:41:18;2.08;;;1.60;;
12770;SDS011;6449;47.666;9.160;2023-07-13T09:46:23;2.72;;;1.70;;
12770;SDS011;6449;47.666;9.160;2023-07-13T09:51:16;3.72;;;1.90;;
12770;SDS011;6449;47.666;9.160;2023-07-13T09:56:18;3.30;;;1.80;;
12770;SDS011;6449;47.666;9.160;2023-07-13T10:01:13;2.58;;;1.45;;
12770;SDS011;6449;47.666;9.160;2023-07-13T10:06:13;3.47;;;1.67;;
12770;SDS011;6449;47.666;9.160;2023-07-13T10:11:11;2.92;;;1.67;;
12770;SDS011;6449;47.666;9.160;2023-07-13T10:16:11;4.22;;;2.22;;
12770;SDS011;6449;47.666;9.160;2023-07-13T10:21:12;4.43;;;1.73;;
12770;SDS011;6449;47.666;9.160;2023-07-13T10:26:14;3.22;;;1.70;;
12770;SDS011;6449;47.666;9.160;2023-07-13T10:31:14;1.92;;;1.65;;
12770;SDS011;6449;47.666;9.160;2023-07-13T10:36:16;2.70;;;1.27;;
12770;SDS011;6449;47.666;9.160;2023-07-13T10:41:21;2.22;;;1.48;;
12770;SDS011;6449;47.666;9.160;2023-07-13T10:46:19;2.70;;;1.65;;
12770;SDS011;6449;47.666;9.160;2023-07-13T10:51:21;4.70;;;1.38;;
12770;SDS011;6449;47.666;9.160;2023-07-13T10:56:20;3.72;;;1.88;;
12770;SDS011;6449;47.666;9.160;2023-07-13T11:01:23;3.78;;;1.70;;
12770;SDS011;6449;47.666;9.160;2023-07-13T11:06:17;2.08;;;1.60;;
12770;SDS011;6449;47.666;9.160;2023-07-13T11:11:37;1.98;;;1.75;;
12770;SDS011;6449;47.666;9.160;2023-07-13T11:16:41;1.77;;;1.58;;
12770;SDS011;6449;47.666;9.160;2023-07-13T11:21:52;2.53;;;1.65;;
12770;SDS011;6449;47.666;9.160;2023-07-13T11:27:10;2.00;;;1.80;;
12770;SDS011;6449;47.666;9.160;2023-07-13T11:32:23;3.35;;;1.60;;
12770;SDS011;6449;47.666;9.160;2023-07-13T11:37:24;2.65;;;1.95;;
12770;SDS011;6449;47.666;9.160;2023-07-13T11:42:21;2.13;;;1.60;;
12770;SDS011;6449;47.666;9.160;2023-07-13T11:47:16;3.13;;;1.80;;
12770;SDS011;6449;47.666;9.160;2023-07-13T11:52:13;2.25;;;1.73;;
12770;SDS011;6449;47.666;9.160;2023-07-13T11:57:15;2.38;;;1.38;;
12770;SDS011;6449;47.666;9.160;2023-07-13T12:02:20;1.77;;;1.67;;
12770;SDS011;6449;47.666;9.160;2023-07-13T12:07:24;3.80;;;1.60;;
12770;SDS011;6449;47.666;9.160;2023-07-13T12:12:29;2.97;;;1.77;;
12770;SDS011;6449;47.666;9.160;2023-07-13T12:17:23;3.42;;;1.90;;
12770;SDS011;6449;47.666;9.160;2023-07-13T12:22:19;2.38;;;1.80;;
12770;SDS011;6449;47.666;9.160;2023-07-13T12:27:18;1.88;;;1.60;;
12770;SDS011;6449;47.666;9.160;2023-07-13T12:32:17;2.72;;;1.60;;
12770;SDS011;6449;47.666;9.160;2023-07-13T12:37:11;2.55;;;1.85;;
12770;SDS011;6449;47.666;9.160;2023-07-13T12:42:13;1.65;;;1.40;;
12770;SDS011;6449;47.666;9.160;2023-07-13T12:47:19;3.58;;;2.15;;
12770;SDS011;6449;47.666;9.160;2023-07-13T12:52:15;1.40;;;1.30;;
12770;SDS011;6449;47.666;9.160;2023-07-13T12:57:14;2.17;;;1.60;;
12770;SDS011;6449;47.666;9.160;2023-07-13T13:02:18;3.13;;;1.67;;
12770;SDS011;6449;47.666;9.160;2023-07-13T13:07:23;2.75;;;2.00;;
12770;SDS011;6449;47.666;9.160;2023-07-13T13:12:17;2.85;;;1.60;;
12770;SDS011;6449;47.666;9.160;2023-07-13T13:17:15;1.85;;;1.52;;
12770;SDS011;6449;47.666;9.160;2023-07-13T13:22:16;2.53;;;1.50;;
12770;SDS011;6449;47.666;9.160;2023-07-13T13:27:13;3.22;;;1.58;;
12770;SDS011;6449;47.666;9.160;2023-07-13T13:32:11;2.17;;;1.50;;
12770;SDS011;6449;47.666;9.160;2023-07-13T13:37:11;1.70;;;1.30;;
12770;SDS011;6449;47.666;9.160;2023-07-13T13:42:12;1.48;;;1.38;;
12770;SDS011;6449;47.666;9.160;2023-07-13T13:47:07;2.58;;;1.65;;
12770;SDS011;6449;47.666;9.160;2023-07-13T13:52:21;1.52;;;1.42;;
12770;SDS011;6449;47.666;9.160;2023-07-13T13:57:14;1.98;;;1.75;;
12770;SDS011;6449;47.666;9.160;2023-07-13T14:02:11;1.63;;;1.52;;
12770;SDS011;6449;47.666;9.160;2023-07-13T14:07:17;2.08;;;1.77;;
12770;SDS011;6449;47.666;9.160;2023-07-13T14:12:12;2.65;;;1.70;;
12770;SDS011;6449;47.666;9.160;2023-07-13T14:17:08;1.50;;;1.40;;
12770;SDS011;6449;47.666;9.160;2023-07-13T14:22:14;1.70;;;1.60;;
12770;SDS011;6449;47.666;9.160;2023-07-13T14:27:08;2.22;;;1.80;;
12770;SDS011;6449;47.666;9.160;2023-07-13T14:32:04;3.38;;;1.90;;
12770;SDS011;6449;47.666;9.160;2023-07-13T14:37:02;2.15;;;1.50;;
12770;SDS011;6449;47.666;9.160;2023-07-13T14:41:57;3.33;;;1.80;;
12770;SDS011;6449;47.666;9.160;2023-07-13T14:46:52;1.80;;;1.70;;
12770;SDS011;6449;47.666;9.160;2023-07-13T14:51:45;3.78;;;1.90;;
12770;SDS011;6449;47.666;9.160;2023-07-13T14:56:39;2.60;;;1.67;;
12770;SDS011;6449;47.666;9.160;2023-07-13T15:01:32;1.75;;;1.65;;
12770;SDS011;6449;47.666;9.160;2023-07-13T15:06:35;3.95;;;1.60;;
12770;SDS011;6449;47.666;9.160;2023-07-13T15:11:50;2.00;;;1.63;;
12770;SDS011;6449;47.666;9.160;2023-07-13T15:16:45;2.75;;;2.10;;
12770;SDS011;6449;47.666;9.160;2023-07-13T15:21:44;2.20;;;1.67;;
12770;SDS011;6449;47.666;9.160;2023-07-13T15:26:39;2.47;;;2.10;;
12770;SDS011;6449;47.666;9.160;2023-07-13T15:31:36;3.13;;;1.90;;
12770;SDS011;6449;47.666;9.160;2023-07-13T15:36:31;2.42;;;1.80;;
12770;SDS011;6449;47.666;9.160;2023-07-13T15:41:26;4.20;;;1.90;;
12770;SDS011;6449;47.666;9.160;2023-07-13T15:46:22;2.92;;;1.75;;
12770;SDS011;6449;47.666;9.160;2023-07-13T15:51:18;1.90;;;1.80;;
12770;SDS011;6449;47.666;9.160;2023-07-13T15:56:17;4.93;;;2.10;;
12770;SDS011;6449;47.666;9.160;2023-07-13T16:01:16;2.38;;;1.70;;
12770;SDS011;6449;47.666;9.160;2023-07-13T16:06:12;2.10;;;1.77;;
12770;SDS011;6449;47.666;9.160;2023-07-13T16:11:12;2.50;;;1.50;;
12770;SDS011;6449;47.666;9.160;2023-07-13T16:16:10;2.45;;;1.58;;
12770;SDS011;6449;47.666;9.160;2023-07-13T16:21:10;1.90;;;1.30;;
12770;SDS011;6449;47.666;9.160;2023-07-13T16:26:21;1.52;;;1.40;;
12770;SDS011;6449;47.666;9.160;2023-07-13T16:31:20;1.30;;;1.20;;
12770;SDS011;6449;47.666;9.160;2023-07-13T16:36:16;1.20;;;1.10;;
12770;SDS011;6449;47.666;9.160;2023-07-13T16:41:09;1.67;;;1.58;;
12770;SDS011;6449;47.666;9.160;2023-07-13T16:46:03;1.98;;;1.50;;
12770;SDS011;6449;47.666;9.160;2023-07-13T16:50:57;2.50;;;1.30;;
12770;SDS011;6449;47.666;9.160;2023-07-13T16:55:52;1.50;;;1.40;;
12770;SDS011;6449;47.666;9.160;2023-07-13T17:00:47;0.95;;;0.93;;
12770;SDS011;6449;47.666;9.160;2023-07-13T17:05:45;0.70;;;0.70;;
12770;SDS011;6449;47.666;9.160;2023-07-13T17:10:40;1.20;;;1.10;;
12770;SDS011;6449;47.666;9.160;2023-07-13T17:15:37;1.75;;;1.30;;
12770;SDS011;6449;47.666;9.160;2023-07-13T17:20:32;1.45;;;1.15;;
12770;SDS011;6449;47.666;9.160;2023-07-13T17:25:33;2.75;;;1.00;;
12770;SDS011;6449;47.666;9.160;2023-07-13T17:30:27;0.85;;;0.85;;
12770;SDS011;6449;47.666;9.160;2023-07-13T17:35:24;3.45;;;1.00;;
12770;SDS011;6449;47.666;9.160;2023-07-13T17:40:21;1.15;;;1.05;;
12770;SDS011;6449;47.666;9.160;2023-07-13T17:45:15;2.42;;;1.00;;
12770;SDS011;6449;47.666;9.160;2023-07-13T17:50:14;3.17;;;1.20;;
12770;SDS011;6449;47.666;9.160;2023-07-13T17:55:15;4.60;;;1.08;;
12770;SDS011;6449;47.666;9.160;2023-07-13T18:00:12;1.30;;;1.20;;
12770;SDS011;6449;47.666;9.160;2023-07-13T18:05:19;1.35;;;1.00;;
12770;SDS011;6449;47.666;9.160;2023-07-13T18:10:17;1.77;;;0.88;;
12770;SDS011;6449;47.666;9.160;2023-07-13T18:15:12;0.95;;;0.90;;
12770;SDS011;6449;47.666;9.160;2023-07-13T18:20:08;1.55;;;1.17;;
12770;SDS011;6449;47.666;9.160;2023-07-13T18:25:11;2.10;;;0.98;;
12770;SDS011;6449;47.666;9.160;2023-07-13T18:30:10;2.65;;;1.30;;
12770;SDS011;6449;47.666;9.160;2023-07-13T18:35:11;1.65;;;1.00;;
12770;SDS011;6449;47.666;9.160;2023-07-13T18:40:11;1.63;;;0.98;;
12770;SDS011;6449;47.666;9.160;2023-07-13T18:45:10;0.88;;;0.80;;
12770;SDS011;6449;47.666;9.160;2023-07-13T18:50:11;1.40;;;0.95;;
12770;SDS011;6449;47.666;9.160;2023-07-13T18:55:14;1.73;;;1.10;;
12770;SDS011;6449;47.666;9.160;2023-07-13T19:00:12;1.20;;;1.10;;
12770;SDS011;6449;47.666;9.160;2023-07-13T19:05:14;1.10;;;1.00;;
12770;SDS011;6449;47.666;9.160;2023-07-13T19:10:13;1.75;;;1.20;;
12770;SDS011;6449;47.666;9.160;2023-07-13T19:15:12;1.38;;;0.93;;
12770;SDS011;6449;47.666;9.160;2023-07-13T19:20:13;1.00;;;0.90;;
12770;SDS011;6449;47.666;9.160;2023-07-13T19:25:14;2.33;;;1.10;;
12770;SDS011;6449;47.666;9.160;2023-07-13T19:30:09;1.52;;;1.20;;
12770;SDS011;6449;47.666;9.160;2023-07-13T19:35:06;1.40;;;1.25;;
12770;SDS011;6449;47.666;9.160;2023-07-13T19:40:00;1.75;;;1.17;;
12770;SDS011;6449;47.666;9.160;2023-07-13T19:44:55;1.38;;;1.15;;
12770;SDS011;6449;47.666;9.160;2023-07-13T19:49:52;2.22;;;1.40;;
12770;SDS011;6449;47.666;9.160;2023-07-13T19:54:46;1.63;;;1.20;;
12770;SDS011;6449;47.666;9.160;2023-07-13T19:59:43;2.67;;;1.08;;
12770;SDS011;6449;47.666;9.160;2023-07-13T20:04:40;1.48;;;1.10;;
12770;SDS011;6449;47.666;9.160;2023-07-13T20:09:35;1.40;;;1.08;;
12770;SDS011;6449;47.666;9.160;2023-07-13T20:14:34;1.90;;;0.95;;
12770;SDS011;6449;47.666;9.160;2023-07-13T20:19:28;1.48;;;1.20;;
12770;SDS011;6449;47.666;9.160;2023-07-13T20:24:25;1.98;;;0.90;;
12770;SDS011;6449;47.666;9.160;2023-07-13T20:29:20;1.42;;;1.20;;
12770;SDS011;6449;47.666;9.160;2023-07-13T20:34:16;2.33;;;1.75;;
12770;SDS011;6449;47.666;9.160;2023-07-13T22:36:40;2.42;;;1.88;;
12770;SDS011;6449;47.666;9.160;2023-07-13T22:41:34;3.60;;;2.50;;
12770;SDS011;6449;47.666;9.160;2023-07-13T22:46:29;1.70;;;1.60;;
12770;SDS011;6449;47.666;9.160;2023-07-13T22:51:25;3.05;;;1.70;;
12770;SDS011;6449;47.666;9.160;2023-07-13T23:02:52;3.03;;;1.65;;
12770;SDS011;6449;47.666;9.160;2023-07-13T23:46:56;1.90;;;1.80;;
12770;SDS011;6449;47.666;9.160;2023-07-13T23:51:50;1.88;;;1.77;;
